Airfield :
LOGIN :

Register | Disclaimer

   EN    FR    IT 

 










Legend :    VFR   Marginal VFR   IFR   Intensive IFR   Very Intensive IFR
Visi :
Ceiling :
>= 8 km
>= 3000ft
5 to 8 km
1000 to 3000 ft
1500m to 5 km
500 to 1000 ft
800 to 1500m
200 to 500 ft
< 800m
< 200 ft
Symbols :   Thunderstorms  Fog  Heavy snow  Heavy precipitations  Wind > 20 kt
SIGMETs :     Misc.  Thunderstorms  Icing  Turbulence  Mountain Waves  Volcanic Ashes







- Airport Elevation : 218 ft
- IATA code : LBG
- Download approach charts


LFPB - Paris / Le Bourget

CURRENT METAR :
  • 181200Z AUTO 26006KT 240V300 9000 OVC038 07/05 Q1025 NOSIG

EXPIRED METARs :
  • 181130Z AUTO 23004KT 7000 OVC041 07/06 Q1026 NOSIG
  • 181100Z AUTO 25005KT 210V300 7000 FEW033 OVC042 07/06 Q1026 NOSIG
  • 181030Z AUTO 29006KT 8000 SCT009 BKN032 OVC041 07/05 Q1026 NOSIG
  • 181000Z AUTO 27004KT 240V300 5000 BR BKN006 07/06 Q1026 BECMG BKN030
  • 180930Z AUTO 27005KT 240V300 5000 BR OVC006 06/05 Q1026 BECMG FEW025

TAF TAF LFPB
Valid from the 18 at 12:00 until the 19 at 12:00 UTC


181100Z 1812/1912 26008KT 8000 BKN035
BECMG 1822/1824 BKN014
PROB40
TEMPO 1900/1904 2500 -RA OVC011
BECMG 1905/1907 BKN020
BECMG 1908/1910 CAVOK
ATIS : +33 1 48 62 43 92
No reported NOTAMs for that airfield.



MET'MAP, your aeronautical weather chart ! - Copyright ORBIFLY December 2007 - Disclaimer

ORBIFLY MET'MAP TEAM :

Programming & Development : Alexandra Zaïnal
Concept & Development : Baudouin d'Aumeries
Co-Development & Prog : Marc-Olivier Méhu
Technical & hardware support : Manuel Goepfert

Contact : metmap@orbifly.com




SOURCES & CREDITS :

   NOAA